createdAt,value
2017-01-06T00:00:14.717Z,0
2017-01-06T00:01:24.669Z,0
2017-01-06T00:02:35.013Z,0
2017-01-06T00:03:45.748Z,0
2017-01-06T00:04:56.506Z,0
2017-01-06T00:06:07.248Z,0
2017-01-06T00:07:17.598Z,0
2017-01-06T00:08:28.356Z,0
2017-01-06T00:09:39.077Z,0
2017-01-06T00:10:49.420Z,0
2017-01-06T00:12:00.154Z,0
2017-01-06T00:13:10.102Z,0
2017-01-06T00:14:20.048Z,0
2017-01-06T00:15:30.814Z,0
2017-01-06T00:16:41.146Z,0
2017-01-06T00:17:51.533Z,0
2017-01-06T00:19:02.251Z,0
2017-01-06T00:20:12.627Z,0
2017-01-06T00:21:23.349Z,0
2017-01-06T00:22:33.696Z,0
2017-01-06T00:23:44.433Z,0
2017-01-06T00:24:54.823Z,0
2017-01-06T00:26:05.562Z,0
2017-01-06T00:27:15.897Z,0
2017-01-06T00:28:26.639Z,0
2017-01-06T00:29:37.375Z,0
2017-01-06T00:30:48.112Z,0
2017-01-06T00:31:58.835Z,0
2017-01-06T00:33:09.172Z,0
2017-01-06T00:34:19.512Z,0
2017-01-06T00:35:29.851Z,0
2017-01-06T00:36:40.585Z,0
2017-01-06T00:37:50.904Z,0
2017-01-06T00:39:01.290Z,0
2017-01-06T00:40:12.045Z,0
2017-01-06T00:41:22.413Z,0
2017-01-06T00:42:33.147Z,0
2017-01-06T00:43:43.493Z,0
2017-01-06T00:44:53.833Z,0
2017-01-06T00:46:04.178Z,0
2017-01-06T00:47:14.531Z,0
2017-01-06T00:48:25.274Z,0
2017-01-06T00:49:36.004Z,0
2017-01-06T00:50:46.385Z,0
2017-01-06T00:51:56.732Z,0
2017-01-06T00:53:07.073Z,0
2017-01-06T00:54:17.816Z,0
2017-01-06T00:55:28.562Z,0
2017-01-06T00:56:38.895Z,0
2017-01-06T00:57:49.230Z,0
2017-01-06T00:58:59.184Z,0
2017-01-06T01:00:09.139Z,0
2017-01-06T01:01:19.513Z,0
2017-01-06T01:02:30.247Z,0
2017-01-06T01:03:40.590Z,0
2017-01-06T01:04:51.321Z,0
2017-01-06T01:06:02.055Z,0
2017-01-06T01:07:12.790Z,0
2017-01-06T01:08:23.527Z,0
2017-01-06T01:09:34.270Z,0
2017-01-06T01:10:45.010Z,0
2017-01-06T01:11:55.766Z,0
2017-01-06T01:13:05.708Z,0
2017-01-06T01:14:15.644Z,0
2017-01-06T01:15:25.996Z,0
2017-01-06T01:16:36.733Z,0
2017-01-06T01:17:47.318Z,0
2017-01-06T01:18:58.086Z,0
2017-01-06T01:20:08.024Z,0
2017-01-06T01:21:18.370Z,0
2017-01-06T01:22:28.712Z,0
2017-01-06T01:23:38.659Z,0
2017-01-06T01:24:49.010Z,0
2017-01-06T01:25:59.754Z,0
2017-01-06T01:27:10.099Z,0
2017-01-06T01:28:20.829Z,0
2017-01-06T01:29:31.558Z,0
2017-01-06T01:30:42.288Z,0
2017-01-06T01:31:52.641Z,0
2017-01-06T01:33:02.584Z,0
2017-01-06T01:34:13.318Z,0
2017-01-06T01:35:24.051Z,0
2017-01-06T01:36:34.003Z,0
2017-01-06T01:37:44.352Z,0
2017-01-06T01:38:55.121Z,0
2017-01-06T01:40:05.882Z,0
2017-01-06T01:41:16.228Z,0
2017-01-06T01:42:26.985Z,0
2017-01-06T01:43:37.727Z,0
2017-01-06T01:44:48.074Z,0
2017-01-06T01:45:58.406Z,0
2017-01-06T01:47:08.353Z,0
2017-01-06T01:48:18.698Z,0
2017-01-06T01:49:29.465Z,0
2017-01-06T01:50:39.807Z,0
2017-01-06T01:51:49.741Z,0
2017-01-06T01:53:00.466Z,0
2017-01-06T01:54:11.203Z,0
2017-01-06T01:55:21.789Z,0
2017-01-06T01:56:32.546Z,0
2017-01-06T01:57:42.942Z,0
2017-01-06T01:58:53.315Z,0
2017-01-06T02:00:04.043Z,0
2017-01-06T02:01:13.993Z,0
2017-01-06T02:02:23.939Z,0
2017-01-06T02:03:34.672Z,0
2017-01-06T02:04:45.007Z,0
2017-01-06T02:05:55.351Z,0
2017-01-06T02:07:05.691Z,0
2017-01-06T02:08:16.028Z,0
2017-01-06T02:09:26.766Z,0
2017-01-06T02:10:37.501Z,0
2017-01-06T02:11:47.443Z,0
2017-01-06T02:12:58.189Z,0
2017-01-06T02:14:08.127Z,0
2017-01-06T02:15:18.138Z,0
2017-01-06T02:16:28.084Z,0
2017-01-06T02:17:38.428Z,0
2017-01-06T02:18:48.757Z,0
2017-01-06T02:19:58.699Z,0
2017-01-06T02:21:09.427Z,0
2017-01-06T02:22:19.758Z,0
2017-01-06T02:23:29.725Z,0
2017-01-06T02:24:40.076Z,0
2017-01-06T02:25:50.420Z,0
2017-01-06T02:27:00.755Z,0
2017-01-06T02:28:11.496Z,0
2017-01-06T02:29:21.854Z,0
2017-01-06T02:30:32.204Z,0
2017-01-06T02:31:42.532Z,0
2017-01-06T02:32:52.863Z,0
2017-01-06T02:34:03.209Z,0
2017-01-06T02:35:13.952Z,0
2017-01-06T02:36:23.499Z,0
2017-01-06T02:37:33.839Z,0
2017-01-06T02:38:44.176Z,0
2017-01-06T02:39:54.913Z,0
2017-01-06T02:41:05.689Z,0
2017-01-06T02:42:16.417Z,0
2017-01-06T02:43:26.743Z,0
2017-01-06T02:44:37.075Z,0
2017-01-06T02:45:47.021Z,0
2017-01-06T02:46:57.368Z,0
2017-01-06T02:48:07.304Z,0
2017-01-06T02:49:17.648Z,0
2017-01-06T02:50:28.382Z,0
2017-01-06T02:51:39.109Z,0
2017-01-06T02:52:48.656Z,0
2017-01-06T02:53:58.988Z,0
2017-01-06T02:55:09.724Z,0
2017-01-06T02:56:19.273Z,0
2017-01-06T02:57:29.608Z,0
2017-01-06T02:58:39.955Z,0
2017-01-06T02:59:50.685Z,0
2017-01-06T03:01:00.619Z,0
2017-01-06T03:32:52.132Z,0
2017-01-06T03:34:02.057Z,0
2017-01-06T03:35:12.391Z,0
2017-01-06T03:36:22.749Z,0
2017-01-06T03:37:33.474Z,0
2017-01-06T03:38:44.216Z,0
2017-01-06T03:39:54.158Z,0
2017-01-06T03:41:04.500Z,0
2017-01-06T03:42:15.261Z,0
2017-01-06T03:43:25.977Z,0
2017-01-06T03:44:36.307Z,0
2017-01-06T03:45:47.042Z,0
2017-01-06T03:46:57.783Z,0
2017-01-06T03:48:08.135Z,0
2017-01-06T03:49:18.468Z,0
2017-01-06T03:50:28.418Z,0
2017-01-06T03:51:39.166Z,0
2017-01-06T03:52:49.903Z,0
2017-01-06T03:54:00.671Z,0
2017-01-06T03:55:11.407Z,0
2017-01-06T03:56:22.147Z,0
2017-01-06T03:57:32.910Z,0
2017-01-06T03:58:43.262Z,0
2017-01-06T03:59:53.604Z,0
2017-01-06T04:01:03.945Z,0
2017-01-06T04:02:14.287Z,0
2017-01-06T04:03:25.022Z,0
2017-01-06T04:04:34.960Z,0
2017-01-06T04:05:45.284Z,0
2017-01-06T04:06:55.629Z,0
2017-01-06T04:08:05.566Z,0
2017-01-06T04:09:15.519Z,0
2017-01-06T04:10:25.896Z,0
2017-01-06T04:11:36.626Z,0
2017-01-06T04:12:47.361Z,0
2017-01-06T04:13:57.709Z,0
2017-01-06T04:15:07.664Z,0
2017-01-06T04:16:17.998Z,0
2017-01-06T04:17:28.729Z,0
2017-01-06T04:18:39.071Z,0
2017-01-06T04:19:49.017Z,0
2017-01-06T04:20:59.756Z,0
2017-01-06T04:22:10.096Z,0
2017-01-06T04:23:20.458Z,0
2017-01-06T04:24:30.407Z,0
2017-01-06T04:25:39.957Z,0
2017-01-06T04:26:50.685Z,0
2017-01-06T04:28:01.420Z,0
2017-01-06T04:29:10.986Z,0
2017-01-06T04:30:21.329Z,0
2017-01-06T04:31:31.678Z,0
2017-01-06T04:32:42.027Z,0
2017-01-06T04:33:52.755Z,0
2017-01-06T04:35:03.491Z,0
2017-01-06T04:36:13.833Z,0
2017-01-06T04:37:24.569Z,0
2017-01-06T04:38:35.303Z,0
2017-01-06T04:39:46.063Z,0
2017-01-06T04:40:56.420Z,0
2017-01-06T04:42:06.757Z,0
2017-01-06T04:43:17.484Z,0
2017-01-06T04:44:27.834Z,0
2017-01-06T04:45:38.570Z,0
2017-01-06T04:46:49.300Z,0
2017-01-06T04:47:59.240Z,0
2017-01-06T04:49:09.569Z,0
2017-01-06T04:50:19.908Z,0
2017-01-06T04:51:29.850Z,0
2017-01-06T04:52:40.185Z,0
2017-01-06T04:53:50.527Z,0
2017-01-06T04:55:00.859Z,0
2017-01-06T04:56:11.586Z,0
2017-01-06T04:57:21.543Z,0
2017-01-06T04:58:32.281Z,0
2017-01-06T04:59:42.217Z,0
2017-01-06T05:00:52.955Z,0
2017-01-06T05:02:03.684Z,0
2017-01-06T05:03:13.635Z,0
2017-01-06T05:04:23.577Z,0
2017-01-06T05:05:34.310Z,0
2017-01-06T05:06:44.647Z,0
2017-01-06T05:07:54.584Z,0
2017-01-06T05:09:04.929Z,0
2017-01-06T05:10:15.307Z,0
2017-01-06T05:11:26.061Z,0
2017-01-06T05:12:36.408Z,0
2017-01-06T05:13:46.756Z,0
2017-01-06T05:14:57.093Z,0
2017-01-06T05:16:07.823Z,0
2017-01-06T05:17:18.561Z,0
2017-01-06T05:18:28.888Z,0
2017-01-06T05:19:39.622Z,0
2017-01-06T05:20:49.963Z,0
2017-01-06T05:22:00.306Z,0
2017-01-06T05:23:10.265Z,0
2017-01-06T05:24:21.022Z,0
2017-01-06T05:25:31.359Z,0
2017-01-06T05:26:41.702Z,0
2017-01-06T05:27:51.657Z,0
2017-01-06T05:29:02.409Z,0
2017-01-06T05:30:13.155Z,0
2017-01-06T05:31:23.892Z,0
2017-01-06T05:32:34.646Z,0
2017-01-06T05:33:45.380Z,0
2017-01-06T05:34:55.718Z,0
2017-01-06T05:36:05.676Z,0
2017-01-06T05:37:15.650Z,0
2017-01-06T05:38:25.982Z,0
2017-01-06T05:39:36.710Z,0
2017-01-06T05:40:47.072Z,0
2017-01-06T05:41:57.818Z,0
2017-01-06T05:43:07.763Z,0
2017-01-06T05:44:17.730Z,0
2017-01-06T05:45:28.468Z,0
2017-01-06T05:46:39.191Z,0
2017-01-06T05:47:49.143Z,0
2017-01-06T05:48:59.876Z,0
2017-01-06T05:50:09.815Z,0
2017-01-06T05:51:20.541Z,0
2017-01-06T05:52:31.289Z,0
2017-01-06T05:53:42.021Z,0
2017-01-06T05:54:52.757Z,0
2017-01-06T05:56:02.704Z,0
2017-01-06T05:57:13.049Z,0
2017-01-06T05:58:23.387Z,0
2017-01-06T05:59:33.325Z,0
2017-01-06T06:00:43.678Z,0
2017-01-06T06:01:54.012Z,0
2017-01-06T06:03:03.949Z,0
2017-01-06T06:04:14.296Z,0
2017-01-06T06:05:24.635Z,0
2017-01-06T06:06:34.975Z,0
2017-01-06T06:07:45.718Z,0
2017-01-06T06:08:56.044Z,0
2017-01-06T06:10:06.784Z,0
2017-01-06T06:11:17.508Z,4
2017-01-06T06:12:27.854Z,4
2017-01-06T06:13:37.394Z,4
2017-01-06T06:14:47.338Z,0
2017-01-06T06:15:57.710Z,0
2017-01-06T06:17:08.050Z,4
2017-01-06T06:18:18.002Z,4
2017-01-06T06:19:28.728Z,0
2017-01-06T06:20:39.108Z,4
2017-01-06T06:21:49.865Z,4
2017-01-06T06:23:00.593Z,8
2017-01-06T06:24:10.920Z,8
2017-01-06T06:25:21.282Z,12
2017-01-06T06:26:32.008Z,12
2017-01-06T06:27:42.734Z,16
2017-01-06T06:28:53.092Z,16
2017-01-06T06:30:03.832Z,20
2017-01-06T06:31:14.574Z,24
2017-01-06T06:32:24.907Z,32
2017-01-06T06:33:35.251Z,32
2017-01-06T06:34:45.190Z,40
2017-01-06T06:35:55.531Z,48
2017-01-06T06:37:06.258Z,56
2017-01-06T06:38:17.003Z,64
2017-01-06T06:39:27.735Z,76
2017-01-06T06:40:37.683Z,88
2017-01-06T06:41:48.035Z,104
2017-01-06T06:42:58.377Z,120
2017-01-06T06:44:09.113Z,140
2017-01-06T06:45:19.444Z,164
2017-01-06T06:46:29.780Z,184
2017-01-06T06:47:39.727Z,200
2017-01-06T06:48:50.491Z,224
2017-01-06T06:50:01.235Z,252
2017-01-06T06:51:11.977Z,280
2017-01-06T06:52:22.343Z,308
2017-01-06T06:53:33.076Z,336
2017-01-06T06:54:42.632Z,372
2017-01-06T06:55:53.370Z,400
2017-01-06T06:57:03.715Z,436
2017-01-06T06:58:14.057Z,476
2017-01-06T06:59:24.039Z,512
2017-01-06T07:00:34.769Z,556
2017-01-06T07:01:45.142Z,588
2017-01-06T07:02:55.898Z,612
2017-01-06T07:04:06.626Z,624
2017-01-06T07:05:17.363Z,612
2017-01-06T07:06:28.106Z,656
2017-01-06T07:07:38.857Z,700
2017-01-06T07:08:49.593Z,792
2017-01-06T07:09:59.998Z,816
2017-01-06T07:11:10.735Z,828
2017-01-06T07:12:21.078Z,920
2017-01-06T07:13:31.423Z,964
2017-01-06T07:14:42.174Z,1016
2017-01-06T07:15:52.541Z,1096
2017-01-06T07:17:03.280Z,1148
2017-01-06T07:18:14.021Z,1196
2017-01-06T07:19:24.355Z,1256
2017-01-06T07:20:35.093Z,1324
2017-01-06T07:21:45.833Z,1376
2017-01-06T07:22:56.195Z,1424
2017-01-06T07:24:06.523Z,1464
2017-01-06T07:25:16.870Z,1496
2017-01-06T07:26:27.607Z,1536
2017-01-06T07:27:37.962Z,1572
2017-01-06T07:28:48.309Z,1616
2017-01-06T07:29:59.032Z,1660
2017-01-06T07:31:09.393Z,1696
2017-01-06T07:32:19.736Z,1732
2017-01-06T07:33:29.696Z,1800
2017-01-06T07:34:40.427Z,1848
2017-01-06T07:35:50.761Z,1900
2017-01-06T07:37:01.115Z,1956
2017-01-06T07:38:11.853Z,1992
2017-01-06T07:39:22.193Z,2052
2017-01-06T07:40:32.140Z,2124
2017-01-06T07:41:42.089Z,2172
2017-01-06T07:42:52.814Z,2216
2017-01-06T07:44:02.761Z,2300
2017-01-06T07:45:13.489Z,2436
2017-01-06T07:46:23.435Z,2528
2017-01-06T07:47:33.783Z,2572
2017-01-06T07:48:44.516Z,2560
2017-01-06T07:49:54.849Z,2588
2017-01-06T07:51:05.592Z,2668
2017-01-06T07:52:16.343Z,2776
2017-01-06T07:53:27.071Z,2844
2017-01-06T07:54:37.813Z,2928
2017-01-06T07:55:48.530Z,3036
2017-01-06T07:56:58.871Z,3136
2017-01-06T07:58:09.601Z,3236
2017-01-06T07:59:20.342Z,3328
2017-01-06T08:00:30.689Z,3476
2017-01-06T08:01:41.023Z,3652
2017-01-06T08:02:51.740Z,3812
2017-01-06T08:04:02.085Z,3900
2017-01-06T08:05:12.852Z,3800
2017-01-06T08:06:23.588Z,3684
2017-01-06T08:07:34.330Z,3600
2017-01-06T08:08:44.662Z,3596
2017-01-06T08:09:54.600Z,3556
2017-01-06T08:11:04.536Z,3484
2017-01-06T08:12:14.092Z,3408
2017-01-06T08:13:24.040Z,3488
2017-01-06T08:14:33.984Z,3464
2017-01-06T08:15:44.327Z,3512
2017-01-06T08:16:55.055Z,3516
2017-01-06T08:18:04.605Z,3912
2017-01-06T08:19:14.938Z,3936
2017-01-06T08:20:24.883Z,4004
2017-01-06T08:21:35.605Z,4328
2017-01-06T08:22:46.374Z,4536
2017-01-06T08:23:57.140Z,4444
2017-01-06T08:25:07.503Z,4324
2017-01-06T08:26:17.874Z,4584
2017-01-06T08:27:28.215Z,4156
2017-01-06T08:28:38.952Z,4056
2017-01-06T08:29:49.693Z,4096
2017-01-06T08:31:00.475Z,4132
2017-01-06T08:32:10.842Z,4216
2017-01-06T08:33:21.609Z,4312
2017-01-06T08:34:32.346Z,4376
2017-01-06T08:35:43.092Z,4476
2017-01-06T08:36:53.433Z,4588
2017-01-06T08:38:04.168Z,4668
2017-01-06T08:39:14.924Z,4648
2017-01-06T08:40:25.275Z,2872
2017-01-06T08:41:36.001Z,3064
2017-01-06T08:42:45.554Z,3636
2017-01-06T08:43:56.338Z,3800
2017-01-06T08:45:06.736Z,3248
2017-01-06T08:46:17.084Z,5116
2017-01-06T08:47:27.815Z,3288
2017-01-06T08:48:38.157Z,5124
2017-01-06T08:49:48.499Z,4748
2017-01-06T08:50:58.854Z,5612
2017-01-06T08:52:09.210Z,5644
2017-01-06T08:53:19.565Z,5412
2017-01-06T08:54:29.906Z,5452
2017-01-06T08:55:39.885Z,5516
2017-01-06T08:56:50.611Z,3704
2017-01-06T08:58:00.978Z,3572
2017-01-06T08:59:11.338Z,4460
2017-01-06T09:00:22.078Z,4024
2017-01-06T09:01:32.826Z,5172
2017-01-06T09:02:43.164Z,5504
2017-01-06T09:03:53.497Z,5420
2017-01-06T09:05:04.238Z,5360
2017-01-06T09:06:14.608Z,5240
2017-01-06T09:07:24.948Z,4832
2017-01-06T09:08:35.694Z,3612
2017-01-06T09:09:45.254Z,5440
2017-01-06T09:10:55.637Z,5272
2017-01-06T09:12:06.388Z,2840
2017-01-06T09:13:17.129Z,2936
2017-01-06T09:14:27.071Z,2740
2017-01-06T09:15:37.808Z,2692
2017-01-06T09:16:47.365Z,2740
2017-01-06T09:17:57.702Z,2664
2017-01-06T09:19:08.467Z,2824
2017-01-06T09:20:18.795Z,2800
2017-01-06T09:21:28.741Z,3220
2017-01-06T09:22:38.699Z,2972
2017-01-06T09:23:49.037Z,4640
2017-01-06T09:24:58.976Z,6100
2017-01-06T09:26:09.320Z,6252
2017-01-06T09:27:19.669Z,6352
2017-01-06T09:28:30.414Z,6076
2017-01-06T09:29:40.355Z,6080
2017-01-06T09:30:51.190Z,6044
2017-01-06T09:32:01.143Z,5960
2017-01-06T09:33:11.492Z,6176
2017-01-06T09:34:21.840Z,5972
2017-01-06T09:35:32.559Z,5380
2017-01-06T09:36:42.914Z,6316
2017-01-06T09:37:53.253Z,5248
2017-01-06T09:39:04.018Z,6688
2017-01-06T09:40:13.974Z,6476
2017-01-06T09:41:23.932Z,5044
2017-01-06T09:42:34.304Z,6608
2017-01-06T09:43:45.043Z,6288
2017-01-06T09:44:55.773Z,5928
2017-01-06T09:46:06.119Z,5280
2017-01-06T09:47:16.872Z,6064
2017-01-06T09:48:27.615Z,6892
2017-01-06T09:49:38.349Z,6892
2017-01-06T09:50:49.085Z,7228
2017-01-06T09:51:59.432Z,7120
2017-01-06T09:53:10.188Z,7176
2017-01-06T09:54:20.140Z,7348
2017-01-06T09:55:30.512Z,7372
2017-01-06T09:56:41.251Z,5508
2017-01-06T09:57:51.208Z,5480
2017-01-06T09:59:01.551Z,6920
2017-01-06T10:00:11.523Z,4968
2017-01-06T10:01:21.873Z,6820
2017-01-06T10:02:32.228Z,6768
2017-01-06T10:03:42.566Z,7376
2017-01-06T10:04:52.917Z,7644
2017-01-06T10:06:03.687Z,7592
2017-01-06T10:07:13.652Z,7484
2017-01-06T10:08:24.386Z,3640
2017-01-06T10:09:35.128Z,3764
2017-01-06T10:10:45.466Z,8000
2017-01-06T10:11:56.213Z,7752
2017-01-06T10:13:06.961Z,7276
2017-01-06T10:14:17.308Z,7436
2017-01-06T10:15:27.663Z,7328
2017-01-06T10:16:38.400Z,7408
2017-01-06T10:17:48.735Z,7684
2017-01-06T10:18:58.686Z,7672
2017-01-06T10:20:09.423Z,7556
2017-01-06T10:21:20.164Z,7316
2017-01-06T10:22:30.508Z,6980
2017-01-06T10:23:41.253Z,7072
2017-01-06T10:24:51.600Z,6912
2017-01-06T10:26:01.569Z,3024
2017-01-06T10:27:11.924Z,7064
2017-01-06T10:28:22.280Z,7004
2017-01-06T10:29:33.024Z,7184
2017-01-06T10:30:43.374Z,7504
2017-01-06T10:31:54.111Z,7540
2017-01-06T10:33:04.877Z,8132
2017-01-06T10:34:15.214Z,8436
2017-01-06T10:35:25.565Z,8684
2017-01-06T10:36:35.901Z,8792
2017-01-06T10:37:46.643Z,8244
2017-01-06T10:38:57.396Z,5356
2017-01-06T10:40:07.748Z,8296
2017-01-06T10:41:18.499Z,7360
2017-01-06T10:42:28.476Z,4852
2017-01-06T10:43:38.843Z,5604
2017-01-06T10:44:49.604Z,4420
2017-01-06T10:45:59.559Z,3540
2017-01-06T10:47:10.292Z,3120
2017-01-06T10:48:21.063Z,3144
2017-01-06T10:49:31.803Z,6460
2017-01-06T10:50:42.570Z,2932
2017-01-06T10:51:53.344Z,3248
2017-01-06T10:53:04.082Z,3416
2017-01-06T10:54:14.453Z,3248
2017-01-06T10:55:24.400Z,3052
2017-01-06T10:56:34.737Z,3696
2017-01-06T10:57:45.086Z,4080
2017-01-06T10:58:55.817Z,4260
2017-01-06T11:00:06.168Z,3752
2017-01-06T11:01:16.553Z,3808
2017-01-06T11:02:27.326Z,3640
2017-01-06T11:03:38.068Z,3752
2017-01-06T11:04:48.415Z,3436
2017-01-06T11:05:58.758Z,3284
2017-01-06T11:07:09.503Z,3356
2017-01-06T11:08:20.254Z,3484
2017-01-06T11:09:30.601Z,3176
2017-01-06T11:10:41.345Z,3120
2017-01-06T11:11:51.724Z,3104
2017-01-06T11:13:01.679Z,3252
2017-01-06T11:14:12.427Z,3820
2017-01-06T11:15:23.173Z,4020
2017-01-06T11:16:33.511Z,4624
2017-01-06T11:17:44.249Z,3780
2017-01-06T11:18:55.001Z,4044
2017-01-06T11:20:05.406Z,4132
2017-01-06T11:21:15.744Z,4548
2017-01-06T11:22:26.481Z,3420
2017-01-06T11:23:37.228Z,8424
2017-01-06T11:24:47.964Z,7044
2017-01-06T11:25:58.336Z,7928
2017-01-06T11:27:09.082Z,7956
2017-01-06T11:28:19.824Z,7536
2017-01-06T11:29:30.566Z,5312
2017-01-06T11:30:41.302Z,4104
2017-01-06T11:31:51.269Z,3836
2017-01-06T11:33:01.641Z,3644
2017-01-06T11:34:11.599Z,3844
2017-01-06T11:35:22.340Z,9344
2017-01-06T11:36:33.082Z,4216
2017-01-06T11:37:43.819Z,3992
2017-01-06T11:38:54.556Z,4160
2017-01-06T11:40:04.917Z,9268
2017-01-06T11:41:15.654Z,7928
2017-01-06T11:42:25.996Z,4000
2017-01-06T11:43:36.742Z,8004
2017-01-06T11:44:47.481Z,4596
2017-01-06T11:45:58.221Z,4220
2017-01-06T11:47:08.967Z,3448
2017-01-06T11:48:19.713Z,3080
2017-01-06T11:49:30.063Z,3144
2017-01-06T11:50:40.013Z,3104
2017-01-06T11:51:50.760Z,2896
2017-01-06T11:53:00.729Z,2792
2017-01-06T11:54:11.099Z,3080
2017-01-06T11:55:21.883Z,3240
2017-01-06T11:56:32.611Z,3472
2017-01-06T11:57:43.332Z,3592
2017-01-06T11:58:54.058Z,3708
2017-01-06T12:00:04.400Z,4068
2017-01-06T12:01:14.768Z,3964
2017-01-06T12:02:25.137Z,3976
2017-01-06T12:03:35.501Z,3468
2017-01-06T12:04:46.264Z,3432
2017-01-06T12:05:56.598Z,3272
2017-01-06T12:07:07.334Z,2972
2017-01-06T12:08:18.070Z,2988
2017-01-06T12:09:28.842Z,2896
2017-01-06T12:10:39.569Z,2928
2017-01-06T12:11:49.902Z,2996
2017-01-06T12:12:59.842Z,2548
2017-01-06T12:14:10.569Z,2668
2017-01-06T12:15:21.307Z,2856
2017-01-06T12:16:32.048Z,3056
2017-01-06T12:17:42.798Z,3248
2017-01-06T12:18:53.153Z,3164
2017-01-06T12:20:03.893Z,3084
2017-01-06T12:21:14.634Z,3112
2017-01-06T12:22:24.980Z,3040
2017-01-06T12:23:35.708Z,3016
2017-01-06T12:24:46.055Z,9156
2017-01-06T12:25:56.806Z,4356
2017-01-06T12:27:07.151Z,4656
2017-01-06T12:28:17.493Z,15808
2017-01-06T12:29:27.451Z,12112
2017-01-06T12:30:37.797Z,15328
2017-01-06T12:31:48.534Z,15552
2017-01-06T12:32:58.881Z,14912
2017-01-06T12:34:09.611Z,8628
2017-01-06T12:35:20.354Z,3392
2017-01-06T12:36:30.691Z,3632
2017-01-06T12:37:41.263Z,3700
2017-01-06T12:38:52.229Z,3692
2017-01-06T12:40:02.971Z,3728
2017-01-06T12:41:13.731Z,3760
2017-01-06T12:42:24.477Z,4304
2017-01-06T12:43:34.827Z,3656
2017-01-06T12:44:45.185Z,3580
2017-01-06T12:45:55.524Z,3660
2017-01-06T12:47:06.279Z,3600
2017-01-06T12:48:16.630Z,3440
2017-01-06T12:49:26.985Z,3280
2017-01-06T12:50:37.738Z,3160
2017-01-06T12:51:48.101Z,2928
2017-01-06T12:52:58.865Z,2964
2017-01-06T12:54:09.237Z,3140
2017-01-06T12:55:19.982Z,3320
2017-01-06T12:56:29.966Z,3448
2017-01-06T12:57:40.318Z,3756
2017-01-06T12:58:50.668Z,6060
2017-01-06T13:00:01.405Z,7380
2017-01-06T13:01:11.754Z,6272
2017-01-06T13:02:22.095Z,4520
2017-01-06T13:03:31.646Z,3324
2017-01-06T13:04:41.982Z,3016
2017-01-06T13:05:52.325Z,2668
2017-01-06T13:07:02.676Z,2428
2017-01-06T13:08:13.014Z,2280
2017-01-06T13:09:23.746Z,2296
2017-01-06T13:10:34.505Z,2164
2017-01-06T13:11:45.259Z,2092
2017-01-06T13:12:55.608Z,2128
2017-01-06T13:14:05.959Z,2260
2017-01-06T13:15:16.691Z,2120
2017-01-06T13:16:26.639Z,2104
2017-01-06T13:17:37.375Z,2160
2017-01-06T13:18:47.710Z,2004
2017-01-06T13:19:58.070Z,2044
2017-01-06T13:21:08.817Z,2100
2017-01-06T13:22:19.181Z,2144
2017-01-06T13:23:29.929Z,2216
2017-01-06T13:24:40.286Z,2268
2017-01-06T13:25:50.637Z,2424
2017-01-06T13:27:01.015Z,2660
2017-01-06T13:28:10.963Z,2720
2017-01-06T13:29:21.720Z,2628
2017-01-06T13:30:32.081Z,2536
2017-01-06T13:31:42.045Z,2364
2017-01-06T13:32:52.382Z,2212
2017-01-06T13:34:02.727Z,2040
2017-01-06T13:35:12.665Z,1928
2017-01-06T13:36:23.397Z,1976
2017-01-06T13:37:34.133Z,1696
2017-01-06T13:38:44.896Z,1312
2017-01-06T13:39:55.251Z,1408
2017-01-06T13:41:05.593Z,1516
2017-01-06T13:42:15.951Z,1436
2017-01-06T13:43:26.292Z,1496
2017-01-06T13:44:37.031Z,1612
2017-01-06T13:45:47.374Z,1676
2017-01-06T13:46:57.716Z,1816
2017-01-06T13:48:08.452Z,1984
2017-01-06T13:49:18.880Z,1948
2017-01-06T13:50:29.622Z,1840
2017-01-06T13:51:40.358Z,1812
2017-01-06T13:52:51.094Z,1644
2017-01-06T13:54:01.450Z,1564
2017-01-06T13:55:12.265Z,1608
2017-01-06T13:56:23.024Z,1608
2017-01-06T13:57:33.397Z,1660
2017-01-06T13:58:43.744Z,1668
2017-01-06T13:59:53.679Z,1592
2017-01-06T14:01:04.415Z,1372
2017-01-06T14:02:15.153Z,1156
2017-01-06T14:03:25.508Z,1156
2017-01-06T14:04:35.840Z,1104
2017-01-06T14:05:45.781Z,1276
2017-01-06T14:06:56.125Z,1012
2017-01-06T14:08:06.070Z,1108
2017-01-06T14:09:16.807Z,1148
2017-01-06T14:10:27.179Z,1152
2017-01-06T14:11:37.532Z,1200
2017-01-06T14:12:47.882Z,1160
2017-01-06T14:13:58.239Z,1012
2017-01-06T14:15:08.587Z,812
2017-01-06T14:16:18.950Z,748
2017-01-06T14:17:29.301Z,788
2017-01-06T14:18:39.280Z,900
2017-01-06T14:19:49.633Z,1012
2017-01-06T14:21:00.375Z,1068
2017-01-06T14:22:11.130Z,1088
2017-01-06T14:23:21.874Z,1116
2017-01-06T14:24:31.820Z,1136
2017-01-06T14:25:42.561Z,1140
2017-01-06T14:26:52.107Z,1148
2017-01-06T14:28:02.839Z,1164
2017-01-06T14:29:13.182Z,1216
2017-01-06T14:30:23.550Z,1324
2017-01-06T14:31:33.879Z,1348
2017-01-06T14:32:44.618Z,1280
2017-01-06T14:33:54.569Z,1060
2017-01-06T14:35:05.311Z,776
2017-01-06T14:36:15.649Z,556
2017-01-06T14:37:25.993Z,408
2017-01-06T14:38:36.319Z,340
2017-01-06T14:39:46.657Z,380
2017-01-06T14:40:56.996Z,404
2017-01-06T14:42:07.347Z,480
2017-01-06T14:43:16.915Z,504
2017-01-06T14:44:27.258Z,552
2017-01-06T14:45:38.017Z,572
2017-01-06T14:46:48.389Z,588
2017-01-06T14:47:59.140Z,592
2017-01-06T14:49:09.528Z,568
2017-01-06T14:50:20.258Z,544
2017-01-06T14:51:30.595Z,512
2017-01-06T14:52:40.951Z,484
2017-01-06T14:53:51.688Z,456
2017-01-06T14:55:02.028Z,404
2017-01-06T14:56:12.803Z,356
2017-01-06T14:57:23.134Z,300
2017-01-06T14:58:33.476Z,240
2017-01-06T14:59:43.434Z,192
2017-01-06T15:00:53.378Z,152
2017-01-06T15:02:03.708Z,112
2017-01-06T15:03:13.682Z,92
2017-01-06T15:04:24.423Z,84
2017-01-06T15:05:35.163Z,88
2017-01-06T15:06:45.916Z,96
2017-01-06T15:07:56.270Z,112
2017-01-06T15:09:07.015Z,100
2017-01-06T15:10:17.372Z,84
2017-01-06T15:11:28.128Z,80
2017-01-06T15:12:38.861Z,84
2017-01-06T15:13:49.611Z,80
2017-01-06T15:15:00.354Z,72
2017-01-06T15:16:09.901Z,68
2017-01-06T15:17:20.662Z,60
2017-01-06T15:18:31.018Z,56
2017-01-06T15:19:41.350Z,52
2017-01-06T15:20:51.702Z,52
2017-01-06T15:22:01.659Z,44
2017-01-06T15:23:12.400Z,40
2017-01-06T15:24:21.963Z,32
2017-01-06T15:25:32.708Z,32
2017-01-06T15:26:43.440Z,32
2017-01-06T15:27:53.795Z,32
2017-01-06T15:29:04.534Z,28
2017-01-06T15:30:14.890Z,24
2017-01-06T15:31:25.621Z,24
2017-01-06T15:32:35.964Z,24
2017-01-06T15:33:46.695Z,16
2017-01-06T15:34:57.043Z,16
2017-01-06T15:36:07.416Z,12
2017-01-06T15:37:18.165Z,12
2017-01-06T15:38:28.912Z,8
2017-01-06T15:39:39.289Z,8
2017-01-06T15:40:49.654Z,8
2017-01-06T15:42:00.426Z,4
2017-01-06T15:43:11.208Z,4
2017-01-06T15:44:21.957Z,4
2017-01-06T15:45:32.316Z,4
2017-01-06T15:46:42.723Z,0
2017-01-06T15:47:53.482Z,4
2017-01-06T15:49:04.233Z,0
2017-01-06T15:50:14.575Z,0
2017-01-06T15:51:24.530Z,4
2017-01-06T15:52:34.879Z,4
2017-01-06T15:53:45.659Z,4
2017-01-06T15:54:56.396Z,0
2017-01-06T15:56:06.798Z,0
2017-01-06T15:57:16.770Z,0
2017-01-06T15:58:27.102Z,0
2017-01-06T15:59:37.443Z,0
2017-01-06T16:00:48.177Z,0
2017-01-06T16:01:58.935Z,0
2017-01-06T16:03:09.285Z,0
2017-01-06T16:04:20.037Z,0
2017-01-06T16:05:30.410Z,0
2017-01-06T16:06:40.773Z,0
2017-01-06T16:07:51.546Z,0
2017-01-06T16:09:02.293Z,0
2017-01-06T16:10:13.029Z,0
2017-01-06T16:11:23.765Z,0
2017-01-06T16:12:34.527Z,0
2017-01-06T16:13:44.883Z,0
2017-01-06T16:14:55.638Z,0
2017-01-06T16:16:06.234Z,0
2017-01-06T16:17:16.981Z,0
2017-01-06T16:18:27.321Z,0
2017-01-06T16:19:37.318Z,0
2017-01-06T16:20:48.092Z,0
2017-01-06T16:21:58.431Z,0
2017-01-06T16:23:08.770Z,0
2017-01-06T16:24:19.511Z,0
2017-01-06T16:25:29.852Z,0
2017-01-06T16:26:40.194Z,0
2017-01-06T16:27:50.150Z,0
2017-01-06T16:29:00.104Z,0
2017-01-06T16:30:10.460Z,0
2017-01-06T16:31:21.187Z,0
2017-01-06T16:32:31.911Z,0
2017-01-06T16:33:42.640Z,0
2017-01-06T16:34:53.387Z,0
2017-01-06T16:36:03.743Z,0
2017-01-06T16:37:14.088Z,0
2017-01-06T16:38:24.442Z,0
2017-01-06T16:39:34.780Z,0
2017-01-06T16:40:45.513Z,0
2017-01-06T16:41:56.270Z,0
2017-01-06T16:43:06.615Z,0
2017-01-06T16:44:17.354Z,0
2017-01-06T16:45:27.719Z,0
2017-01-06T16:46:38.470Z,0
2017-01-06T16:47:49.203Z,0
2017-01-06T16:48:59.558Z,0
2017-01-06T16:50:10.304Z,0
2017-01-06T16:51:21.038Z,0
2017-01-06T16:52:31.399Z,0
2017-01-06T16:53:42.140Z,0
2017-01-06T16:54:52.477Z,0
2017-01-06T16:56:02.835Z,0
2017-01-06T16:57:13.176Z,0